createdAt,value
2018-09-25T00:00:26.047Z,10.79
2018-09-25T00:01:26.027Z,10.69
2018-09-25T00:02:26.000Z,10.68
2018-09-25T00:03:25.989Z,10.69
2018-09-25T00:04:25.964Z,10.67
2018-09-25T00:05:25.940Z,10.72
2018-09-25T00:06:25.914Z,10.67
2018-09-25T00:07:25.894Z,10.69
2018-09-25T00:08:25.871Z,10.68
2018-09-25T00:09:25.852Z,10.68
2018-09-25T00:10:25.840Z,10.72
2018-09-25T00:11:25.808Z,10.76
2018-09-25T00:12:25.791Z,10.68
2018-09-25T00:13:25.767Z,10.72
2018-09-25T00:14:25.749Z,10.64
2018-09-25T00:15:25.725Z,10.64
2018-09-25T00:16:25.704Z,10.71
2018-09-25T00:17:25.682Z,10.68
2018-09-25T00:18:25.660Z,10.69
2018-09-25T00:19:25.639Z,10.69
2018-09-25T00:20:25.639Z,10.75
2018-09-25T00:21:25.596Z,10.77
2018-09-25T00:22:25.575Z,10.75
2018-09-25T00:23:25.552Z,10.75
2018-09-25T00:24:25.531Z,10.77
2018-09-25T00:25:25.508Z,10.80
2018-09-25T00:26:25.487Z,10.76
2018-09-25T00:27:25.467Z,10.71
2018-09-25T00:28:25.445Z,10.77
2018-09-25T00:29:25.424Z,10.72
2018-09-25T00:30:25.402Z,10.79
2018-09-25T00:31:25.380Z,10.76
2018-09-25T00:32:25.363Z,10.72
2018-09-25T00:33:25.363Z,10.68
2018-09-25T00:34:25.326Z,10.69
2018-09-25T00:35:25.299Z,10.71
2018-09-25T00:36:25.273Z,10.59
2018-09-25T00:37:25.251Z,10.65
2018-09-25T00:38:25.231Z,10.58
2018-09-25T00:39:25.208Z,10.62
2018-09-25T00:40:25.188Z,10.55
2018-09-25T00:41:25.169Z,10.61
2018-09-25T00:42:25.147Z,10.64
2018-09-25T00:43:25.124Z,10.61
2018-09-25T00:44:25.104Z,10.64
2018-09-25T00:45:25.081Z,10.49
2018-09-25T00:46:25.059Z,10.55
2018-09-25T00:47:25.040Z,10.59
2018-09-25T00:48:25.018Z,10.45
2018-09-25T00:49:24.996Z,10.43
2018-09-25T00:50:24.974Z,10.51
2018-09-25T00:51:24.953Z,10.43
2018-09-25T00:52:24.934Z,10.43
2018-09-25T00:53:24.911Z,10.42
2018-09-25T00:54:24.887Z,10.43
2018-09-25T00:55:24.865Z,10.30
2018-09-25T00:56:24.862Z,10.31
2018-09-25T00:57:24.827Z,10.38
2018-09-25T00:58:24.806Z,10.30
2018-09-25T00:59:24.783Z,10.31
2018-09-25T01:00:24.759Z,10.33
2018-09-25T01:01:24.737Z,10.25
2018-09-25T01:02:24.716Z,10.27
2018-09-25T01:03:24.719Z,10.39
2018-09-25T01:04:24.694Z,10.33
2018-09-25T01:05:24.652Z,10.33
2018-09-25T01:06:24.628Z,10.41
2018-09-25T01:07:24.607Z,10.36
2018-09-25T01:08:24.586Z,10.33
2018-09-25T01:09:24.563Z,10.45
2018-09-25T01:10:24.546Z,10.41
2018-09-25T01:11:24.520Z,10.36
2018-09-25T01:12:24.499Z,10.28
2018-09-25T01:13:24.477Z,10.30
2018-09-25T01:14:24.457Z,10.23
2018-09-25T01:15:24.433Z,10.27
2018-09-25T01:16:24.414Z,10.25
2018-09-25T01:17:24.391Z,10.28
2018-09-25T01:18:24.375Z,10.25
2018-09-25T01:19:24.347Z,10.23
2018-09-25T01:20:24.329Z,10.33
2018-09-25T01:21:24.309Z,10.27
2018-09-25T01:22:24.308Z,10.33
2018-09-25T01:23:24.268Z,10.33
2018-09-25T01:24:24.240Z,10.34
2018-09-25T01:25:24.255Z,10.25
2018-09-25T01:26:24.199Z,10.27
2018-09-25T01:27:24.178Z,10.20
2018-09-25T01:28:24.161Z,10.17
2018-09-25T01:29:24.132Z,10.20
2018-09-25T01:30:24.109Z,10.17
2018-09-25T01:31:24.089Z,10.10
2018-09-25T01:32:24.066Z,10.07
2018-09-25T01:33:24.046Z,10.13
2018-09-25T01:34:24.025Z,10.12
2018-09-25T01:35:24.002Z,10.07
2018-09-25T01:36:23.980Z,10.12
2018-09-25T01:37:23.962Z,10.05
2018-09-25T01:38:23.936Z,10.10
2018-09-25T01:39:23.917Z,10.00
2018-09-25T01:40:23.905Z,10.10
2018-09-25T01:41:23.875Z,10.10
2018-09-25T01:42:23.866Z,10.03
2018-09-25T01:43:23.828Z,9.94
2018-09-25T01:44:23.814Z,9.95
2018-09-25T01:45:23.784Z,10.03
2018-09-25T01:46:23.766Z,9.97
2018-09-25T01:47:23.741Z,10.02
2018-09-25T01:48:23.732Z,10.05
2018-09-25T01:49:23.695Z,10.05
2018-09-25T01:50:23.678Z,10.03
2018-09-25T01:51:23.657Z,10.05
2018-09-25T01:52:23.635Z,9.95
2018-09-25T01:53:23.610Z,10.02
2018-09-25T01:54:23.590Z,10.00
2018-09-25T01:55:23.566Z,10.07
2018-09-25T01:56:23.545Z,10.02
2018-09-25T01:57:23.522Z,10.09
2018-09-25T01:58:23.504Z,10.03
2018-09-25T01:59:23.480Z,9.99
2018-09-25T02:00:23.458Z,10.02
2018-09-25T02:01:23.436Z,9.99
2018-09-25T02:02:23.413Z,10.02
2018-09-25T02:03:23.392Z,9.97
2018-09-25T02:04:23.372Z,9.99
2018-09-25T02:05:23.348Z,10.00
2018-09-25T02:06:23.332Z,9.97
2018-09-25T02:07:23.305Z,10.03
2018-09-25T02:08:23.284Z,9.99
2018-09-25T02:09:23.260Z,9.92
2018-09-25T02:10:23.237Z,9.92
2018-09-25T02:11:23.234Z,9.95
2018-09-25T02:12:23.197Z,9.85
2018-09-25T02:13:23.175Z,9.90
2018-09-25T02:14:23.154Z,9.77
2018-09-25T02:15:23.129Z,9.85
2018-09-25T02:16:23.108Z,9.74
2018-09-25T02:17:23.085Z,9.85
2018-09-25T02:18:23.064Z,9.74
2018-09-25T02:19:23.047Z,9.90
2018-09-25T02:20:23.025Z,9.80
2018-09-25T02:21:22.997Z,9.76
2018-09-25T02:22:22.975Z,9.87
2018-09-25T02:23:22.953Z,9.87
2018-09-25T02:24:22.938Z,9.92
2018-09-25T02:25:22.916Z,9.92
2018-09-25T02:26:22.888Z,9.88
2018-09-25T02:27:22.867Z,9.87
2018-09-25T02:28:22.844Z,9.77
2018-09-25T02:29:22.822Z,9.81
2018-09-25T02:30:22.800Z,9.69
2018-09-25T02:31:22.784Z,9.70
2018-09-25T02:32:22.761Z,9.72
2018-09-25T02:33:22.734Z,9.72
2018-09-25T02:34:22.713Z,9.66
2018-09-25T02:35:22.690Z,9.73
2018-09-25T02:36:22.679Z,9.72
2018-09-25T02:37:22.645Z,9.69
2018-09-25T02:38:22.636Z,9.64
2018-09-25T02:39:22.603Z,9.67
2018-09-25T02:40:22.580Z,9.63
2018-09-25T02:41:22.557Z,9.67
2018-09-25T02:42:22.535Z,9.67
2018-09-25T02:43:22.521Z,9.70
2018-09-25T02:44:22.492Z,9.66
2018-09-25T02:45:22.487Z,9.69
2018-09-25T02:46:22.448Z,9.63
2018-09-25T02:47:22.428Z,9.66
2018-09-25T02:48:22.404Z,9.56
2018-09-25T02:49:22.385Z,9.59
2018-09-25T02:50:22.382Z,9.51
2018-09-25T02:51:22.351Z,9.51
2018-09-25T02:52:22.322Z,9.52
2018-09-25T02:53:22.292Z,9.47
2018-09-25T02:54:22.271Z,9.47
2018-09-25T02:55:22.249Z,9.42
2018-09-25T02:56:22.252Z,9.51
2018-09-25T02:57:22.215Z,9.52
2018-09-25T02:58:22.184Z,9.55
2018-09-25T02:59:22.168Z,9.62
2018-09-25T03:00:22.139Z,9.55
2018-09-25T03:01:22.152Z,9.56
2018-09-25T03:02:22.096Z,9.54
2018-09-25T03:03:22.079Z,9.54
2018-09-25T03:04:22.051Z,9.54
2018-09-25T03:05:22.033Z,9.54
2018-09-25T03:06:22.010Z,9.51
2018-09-25T03:07:21.987Z,9.52
2018-09-25T03:08:21.964Z,9.51
2018-09-25T03:09:21.943Z,9.45
2018-09-25T03:10:21.981Z,9.40
2018-09-25T03:11:21.896Z,9.36
2018-09-25T03:12:21.876Z,9.36
2018-09-25T03:13:21.852Z,9.34
2018-09-25T03:14:21.828Z,9.34
2018-09-25T03:15:21.817Z,9.37
2018-09-25T03:16:21.786Z,9.39
2018-09-25T03:17:21.763Z,9.44
2018-09-25T03:18:21.740Z,9.39
2018-09-25T03:19:21.773Z,9.42
2018-09-25T03:20:21.730Z,9.44
2018-09-25T03:21:21.674Z,9.39
2018-09-25T03:22:21.652Z,9.42
2018-09-25T03:23:21.638Z,9.40
2018-09-25T03:24:21.608Z,9.33
2018-09-25T03:25:21.585Z,9.39
2018-09-25T03:26:21.567Z,9.21
2018-09-25T03:27:21.540Z,9.19
2018-09-25T03:28:21.518Z,9.19
2018-09-25T03:29:21.496Z,9.26
2018-09-25T03:30:21.475Z,9.15
2018-09-25T03:31:21.456Z,9.08
2018-09-25T03:32:21.429Z,9.15
2018-09-25T03:33:21.407Z,9.21
2018-09-25T03:34:21.394Z,9.19
2018-09-25T03:35:21.364Z,9.22
2018-09-25T03:36:21.339Z,9.22
2018-09-25T03:37:21.318Z,9.15
2018-09-25T03:38:21.294Z,9.16
2018-09-25T03:39:21.274Z,9.16
2018-09-25T03:40:21.253Z,9.15
2018-09-25T03:41:21.271Z,9.18
2018-09-25T03:42:21.207Z,9.08
2018-09-25T03:43:21.184Z,9.05
2018-09-25T03:44:21.163Z,9.09
2018-09-25T03:45:21.139Z,9.15
2018-09-25T03:46:21.118Z,9.22
2018-09-25T03:47:21.094Z,9.29
2018-09-25T03:48:21.086Z,9.19
2018-09-25T03:49:21.050Z,9.19
2018-09-25T03:50:21.030Z,9.30
2018-09-25T03:51:21.006Z,9.36
2018-09-25T03:52:20.983Z,9.21
2018-09-25T03:53:20.959Z,9.24
2018-09-25T03:54:20.938Z,9.18
2018-09-25T03:55:20.924Z,9.24
2018-09-25T03:56:20.894Z,9.22
2018-09-25T03:57:20.870Z,9.19
2018-09-25T03:58:20.849Z,9.22
2018-09-25T03:59:20.827Z,9.27
2018-09-25T04:00:20.807Z,9.19
2018-09-25T04:01:20.784Z,9.21
2018-09-25T04:02:20.760Z,9.24
2018-09-25T04:03:20.791Z,9.09
2018-09-25T04:04:20.722Z,9.12
2018-09-25T04:05:20.707Z,9.02
2018-09-25T04:06:20.701Z,9.12
2018-09-25T04:07:20.653Z,9.02
2018-09-25T04:08:20.627Z,9.09
2018-09-25T04:09:20.612Z,9.02
2018-09-25T04:10:20.581Z,9.00
2018-09-25T04:11:20.566Z,8.99
2018-09-25T04:12:20.537Z,8.89
2018-09-25T04:13:20.514Z,8.96
2018-09-25T04:14:20.493Z,8.96
2018-09-25T04:15:20.470Z,8.95
2018-09-25T04:16:20.454Z,8.96
2018-09-25T04:17:20.429Z,9.08
2018-09-25T04:18:20.406Z,9.12
2018-09-25T04:19:20.380Z,9.09
2018-09-25T04:20:20.361Z,9.08
2018-09-25T04:21:20.335Z,9.09
2018-09-25T04:22:20.311Z,9.05
2018-09-25T04:23:20.290Z,9.12
2018-09-25T04:24:20.269Z,9.11
2018-09-25T04:25:20.248Z,9.11
2018-09-25T04:26:20.224Z,9.08
2018-09-25T04:27:20.199Z,9.03
2018-09-25T04:28:20.226Z,8.90
2018-09-25T04:29:20.154Z,8.93
2018-09-25T04:30:20.134Z,9.09
2018-09-25T04:31:20.113Z,9.11
2018-09-25T04:32:20.094Z,9.13
2018-09-25T04:33:20.066Z,9.13
2018-09-25T04:34:20.044Z,9.15
2018-09-25T04:35:20.024Z,9.16
2018-09-25T04:36:20.003Z,9.12
2018-09-25T04:37:19.976Z,9.09
2018-09-25T04:38:20.458Z,9.08
2018-09-25T04:39:19.942Z,9.15
2018-09-25T04:40:19.994Z,9.09
2018-09-25T04:41:19.886Z,8.99
2018-09-25T04:42:19.873Z,9.03
2018-09-25T04:43:19.840Z,8.93
2018-09-25T04:44:19.818Z,8.99
2018-09-25T04:45:19.795Z,8.97
2018-09-25T04:46:19.773Z,8.92
2018-09-25T04:47:19.750Z,9.00
2018-09-25T04:48:19.732Z,8.89
2018-09-25T04:49:19.705Z,8.92
2018-09-25T04:50:19.685Z,8.87
2018-09-25T04:51:19.661Z,8.82
2018-09-25T04:52:19.638Z,8.81
2018-09-25T04:53:19.624Z,8.79
2018-09-25T04:54:19.599Z,8.89
2018-09-25T04:55:19.583Z,8.84
2018-09-25T04:56:19.549Z,8.92
2018-09-25T04:57:19.527Z,8.84
2018-09-25T04:58:19.512Z,8.78
2018-09-25T04:59:19.498Z,8.72
2018-09-25T05:00:19.459Z,8.74
2018-09-25T05:01:19.446Z,8.75
2018-09-25T05:02:19.413Z,8.81
2018-09-25T05:03:19.390Z,8.74
2018-09-25T05:04:19.369Z,8.86
2018-09-25T05:05:19.354Z,8.74
2018-09-25T05:06:19.321Z,8.79
2018-09-25T05:07:19.300Z,8.89
2018-09-25T05:08:19.290Z,8.99
2018-09-25T05:09:19.257Z,8.93
2018-09-25T05:10:19.234Z,8.99
2018-09-25T05:11:19.212Z,8.99
2018-09-25T05:12:19.192Z,9.02
2018-09-25T05:13:19.167Z,8.95
2018-09-25T05:14:19.143Z,8.93
2018-09-25T05:15:19.121Z,8.93
2018-09-25T05:16:19.097Z,8.96
2018-09-25T05:17:19.095Z,8.96
2018-09-25T05:18:19.052Z,8.99
2018-09-25T05:19:19.031Z,8.97
2018-09-25T05:20:19.006Z,8.96
2018-09-25T05:21:18.983Z,9.05
2018-09-25T05:22:18.961Z,8.95
2018-09-25T05:23:18.988Z,8.84
2018-09-25T05:24:18.921Z,8.79
2018-09-25T05:25:18.895Z,8.87
2018-09-25T05:26:18.875Z,8.86
2018-09-25T05:27:18.849Z,8.84
2018-09-25T05:28:18.824Z,8.82
2018-09-25T05:29:18.803Z,8.81
2018-09-25T05:30:18.804Z,8.81
2018-09-25T05:31:18.762Z,8.79
2018-09-25T05:32:18.747Z,8.78
2018-09-25T05:33:18.715Z,8.86
2018-09-25T05:34:18.690Z,8.78
2018-09-25T05:35:18.667Z,8.77
2018-09-25T05:36:18.687Z,8.77
2018-09-25T05:37:18.620Z,8.74
2018-09-25T05:38:18.604Z,8.78
2018-09-25T05:39:18.585Z,8.78
2018-09-25T05:40:18.554Z,8.75
2018-09-25T05:41:18.529Z,8.66
2018-09-25T05:42:18.516Z,8.66
2018-09-25T05:43:18.490Z,8.69
2018-09-25T05:44:18.462Z,8.68
2018-09-25T05:45:18.442Z,8.68
2018-09-25T05:46:18.417Z,8.68
2018-09-25T05:47:18.395Z,8.63
2018-09-25T05:48:18.443Z,8.66
2018-09-25T05:49:18.348Z,8.60
2018-09-25T05:50:18.328Z,8.63
2018-09-25T05:51:18.304Z,8.79
2018-09-25T05:52:18.283Z,8.77
2018-09-25T05:53:18.258Z,8.79
2018-09-25T05:54:18.261Z,8.75
2018-09-25T05:55:18.216Z,8.75
2018-09-25T05:56:18.190Z,8.61
2018-09-25T05:57:18.168Z,8.60
2018-09-25T05:58:18.144Z,8.72
2018-09-25T05:59:18.121Z,8.69
2018-09-25T06:00:18.099Z,8.71
2018-09-25T06:01:18.075Z,8.78
2018-09-25T06:02:18.056Z,8.71
2018-09-25T06:03:18.040Z,8.77
2018-09-25T06:04:18.011Z,8.75
2018-09-25T06:05:17.986Z,8.78
2018-09-25T06:06:17.962Z,8.79
2018-09-25T06:07:17.940Z,8.78
2018-09-25T06:08:17.919Z,8.66
2018-09-25T06:09:17.953Z,8.72
2018-09-25T06:10:17.872Z,8.75
2018-09-25T06:11:17.851Z,8.69
2018-09-25T06:12:17.834Z,8.78
2018-09-25T06:13:17.804Z,8.74
2018-09-25T06:14:17.781Z,8.84
2018-09-25T06:15:17.758Z,8.92
2018-09-25T06:16:17.737Z,8.71
2018-09-25T06:17:17.713Z,8.74
2018-09-25T06:18:17.688Z,8.84
2018-09-25T06:19:17.672Z,8.81
2018-09-25T06:20:17.644Z,8.81
2018-09-25T06:21:17.624Z,8.82
2018-09-25T06:22:17.599Z,8.84
2018-09-25T06:23:17.576Z,8.86
2018-09-25T06:24:17.553Z,8.96
2018-09-25T06:25:17.538Z,8.95
2018-09-25T06:26:17.508Z,8.89
2018-09-25T06:27:17.493Z,9.08
2018-09-25T06:28:17.464Z,9.05
2018-09-25T06:29:17.445Z,9.16
2018-09-25T06:30:17.425Z,9.22
2018-09-25T06:31:17.393Z,9.24
2018-09-25T06:32:17.383Z,9.22
2018-09-25T06:33:17.349Z,9.21
2018-09-25T06:34:17.353Z,9.26
2018-09-25T06:35:17.317Z,9.22
2018-09-25T06:36:17.283Z,9.19
2018-09-25T06:37:17.311Z,9.21
2018-09-25T06:38:17.235Z,9.29
2018-09-25T06:39:17.214Z,9.24
2018-09-25T06:40:17.193Z,9.27
2018-09-25T06:41:17.181Z,9.22
2018-09-25T06:42:17.147Z,9.29
2018-09-25T06:43:17.122Z,9.33
2018-09-25T06:44:17.100Z,9.30
2018-09-25T06:45:17.076Z,9.31
2018-09-25T06:46:17.062Z,9.33
2018-09-25T06:47:17.057Z,9.40
2018-09-25T06:48:17.010Z,9.37
2018-09-25T06:49:16.988Z,9.40
2018-09-25T06:50:16.971Z,9.37
2018-09-25T06:51:16.941Z,9.44
2018-09-25T06:52:16.919Z,9.36
2018-09-25T06:53:16.898Z,9.34
2018-09-25T06:54:16.880Z,9.37
2018-09-25T06:55:16.930Z,9.39
2018-09-25T06:56:16.837Z,9.42
2018-09-25T06:57:16.806Z,9.39
2018-09-25T06:58:16.788Z,9.51
2018-09-25T06:59:16.762Z,9.58
2018-09-25T07:00:16.739Z,9.56
2018-09-25T07:01:16.723Z,9.51
2018-09-25T07:02:16.692Z,9.54
2018-09-25T07:03:16.671Z,9.63
2018-09-25T07:04:16.648Z,9.72
2018-09-25T07:05:16.632Z,9.69
2018-09-25T07:06:16.606Z,9.74
2018-09-25T07:07:16.582Z,9.73
2018-09-25T07:08:16.557Z,9.81
2018-09-25T07:09:16.535Z,9.87
2018-09-25T07:10:16.628Z,9.81
2018-09-25T07:11:16.490Z,9.90
2018-09-25T07:12:16.467Z,9.90
2018-09-25T07:13:16.445Z,9.88
2018-09-25T07:14:16.421Z,10.07
2018-09-25T07:15:16.400Z,9.97
2018-09-25T07:16:16.376Z,10.05
2018-09-25T07:17:16.354Z,10.10
2018-09-25T07:18:16.334Z,10.05
2018-09-25T07:19:16.311Z,10.17
2018-09-25T07:20:16.288Z,10.17
2018-09-25T07:21:16.265Z,10.17
2018-09-25T07:22:16.253Z,10.15
2018-09-25T07:23:16.220Z,10.21
2018-09-25T07:24:16.200Z,10.21
2018-09-25T07:25:16.176Z,10.20
2018-09-25T07:26:16.153Z,10.27
2018-09-25T07:27:16.132Z,10.25
2018-09-25T07:28:16.110Z,10.23
2018-09-25T07:29:16.089Z,10.31
2018-09-25T07:30:16.071Z,10.33
2018-09-25T07:31:16.043Z,10.42
2018-09-25T07:32:16.023Z,10.31
2018-09-25T07:33:15.998Z,10.41
2018-09-25T07:34:15.975Z,10.45
2018-09-25T07:35:15.957Z,10.41
2018-09-25T07:36:15.944Z,10.42
2018-09-25T07:37:15.909Z,10.45
2018-09-25T07:38:15.885Z,10.48
2018-09-25T07:39:15.865Z,10.51
2018-09-25T07:40:15.843Z,10.55
2018-09-25T07:41:15.822Z,10.57
2018-09-25T07:42:15.804Z,10.67
2018-09-25T07:43:15.781Z,10.61
2018-09-25T07:44:15.755Z,10.64
2018-09-25T07:45:15.730Z,10.76
2018-09-25T07:46:15.710Z,10.75
2018-09-25T07:47:15.701Z,10.77
2018-09-25T07:48:15.686Z,10.92
2018-09-25T07:49:15.643Z,10.84
2018-09-25T07:50:15.621Z,10.90
2018-09-25T07:51:15.601Z,10.86
2018-09-25T07:52:15.578Z,10.97
2018-09-25T07:53:15.556Z,10.97
2018-09-25T07:54:15.532Z,11.00
2018-09-25T07:55:15.509Z,11.07
2018-09-25T07:56:15.494Z,10.97
2018-09-25T07:57:15.467Z,11.04
2018-09-25T07:58:15.443Z,11.07
2018-09-25T07:59:15.423Z,11.04
2018-09-25T08:00:15.411Z,11.10
2018-09-25T08:01:15.378Z,11.15
2018-09-25T08:02:15.359Z,11.13
2018-09-25T08:03:15.434Z,11.18
2018-09-25T08:04:15.313Z,11.22
2018-09-25T08:05:15.292Z,11.23
2018-09-25T08:06:15.268Z,11.31
2018-09-25T08:07:15.248Z,11.26
2018-09-25T08:08:15.225Z,11.35
2018-09-25T08:09:15.203Z,11.35
2018-09-25T08:10:15.181Z,11.38
2018-09-25T08:11:15.161Z,11.41
2018-09-25T08:12:15.137Z,11.38
2018-09-25T08:13:15.117Z,11.44
2018-09-25T08:14:15.095Z,11.55
2018-09-25T08:15:15.086Z,11.56
2018-09-25T08:16:15.050Z,11.52
2018-09-25T08:17:15.044Z,11.59
2018-09-25T08:18:15.006Z,11.58
2018-09-25T08:19:14.985Z,11.63
2018-09-25T08:20:14.965Z,11.65
2018-09-25T08:21:14.945Z,11.67
2018-09-25T08:22:14.924Z,11.76
2018-09-25T08:23:14.902Z,11.70
2018-09-25T08:24:14.882Z,11.73
2018-09-25T08:25:14.858Z,11.68
2018-09-25T08:26:14.832Z,11.77
2018-09-25T08:27:14.812Z,11.85
2018-09-25T08:28:14.792Z,11.81
2018-09-25T08:29:14.768Z,11.83
2018-09-25T08:30:14.750Z,11.80
2018-09-25T08:31:14.726Z,11.93
2018-09-25T08:32:14.717Z,11.91
2018-09-25T08:33:14.699Z,11.99
2018-09-25T08:34:14.660Z,11.96
2018-09-25T08:35:14.638Z,11.95
2018-09-25T08:36:14.622Z,11.99
2018-09-25T08:37:14.596Z,11.97
2018-09-25T08:38:14.574Z,12.08
2018-09-25T08:39:14.649Z,12.02
2018-09-25T08:40:14.537Z,12.10
2018-09-25T08:41:14.508Z,12.14
2018-09-25T08:42:14.492Z,12.08
2018-09-25T08:43:14.465Z,12.18
2018-09-25T08:44:14.444Z,12.14
2018-09-25T08:45:14.426Z,12.18
2018-09-25T08:46:14.400Z,12.23
2018-09-25T08:47:14.381Z,12.20
2018-09-25T08:48:14.357Z,12.25
2018-09-25T08:49:14.335Z,12.29
2018-09-25T08:50:14.318Z,12.33
2018-09-25T08:51:14.294Z,12.37
2018-09-25T08:52:14.271Z,12.25
2018-09-25T08:53:14.250Z,12.36
2018-09-25T08:54:14.228Z,12.37
2018-09-25T08:55:14.207Z,12.39
2018-09-25T08:56:14.190Z,12.44
2018-09-25T08:57:14.164Z,12.36
2018-09-25T08:58:14.155Z,12.55
2018-09-25T08:59:14.124Z,12.55
2018-09-25T09:00:14.102Z,12.53
2018-09-25T09:01:14.080Z,12.54
2018-09-25T09:02:14.057Z,12.57
2018-09-25T09:03:14.043Z,12.61
2018-09-25T09:04:14.016Z,12.53
2018-09-25T09:05:13.999Z,12.57
2018-09-25T09:06:13.975Z,12.62
2018-09-25T09:07:13.959Z,12.65
2018-09-25T09:08:13.939Z,12.68
2018-09-25T09:09:13.928Z,12.66
2018-09-25T09:10:13.886Z,12.66
2018-09-25T09:11:13.866Z,12.72
2018-09-25T09:12:13.843Z,12.72
2018-09-25T09:13:13.840Z,12.69
2018-09-25T09:14:13.804Z,12.84
2018-09-25T09:15:13.780Z,12.84
2018-09-25T09:16:13.767Z,12.84
2018-09-25T09:17:13.738Z,12.84
2018-09-25T09:18:13.724Z,12.86
2018-09-25T09:19:13.696Z,12.83
2018-09-25T09:20:13.738Z,12.81
2018-09-25T09:21:13.655Z,12.91
2018-09-25T09:22:13.632Z,12.90
2018-09-25T09:23:13.612Z,12.88
2018-09-25T09:24:13.590Z,12.98
2018-09-25T09:25:13.616Z,12.93
2018-09-25T09:26:13.548Z,13.03
2018-09-25T09:27:13.565Z,13.02
2018-09-25T09:28:13.505Z,12.98
2018-09-25T09:29:13.486Z,13.06
2018-09-25T09:30:13.465Z,13.03
2018-09-25T09:31:13.452Z,13.05
2018-09-25T09:32:13.419Z,13.05
2018-09-25T09:33:13.401Z,13.03
2018-09-25T09:34:13.387Z,13.05
2018-09-25T09:35:13.359Z,13.17
2018-09-25T09:36:13.340Z,13.23
2018-09-25T09:37:13.317Z,13.16
2018-09-25T09:38:13.294Z,13.21
2018-09-25T09:39:13.273Z,13.20
2018-09-25T09:40:13.259Z,13.24
2018-09-25T09:41:13.249Z,13.21
2018-09-25T09:42:13.219Z,13.33
2018-09-25T09:43:13.193Z,13.27
2018-09-25T09:44:13.170Z,13.37
2018-09-25T09:45:13.148Z,13.33
2018-09-25T09:46:13.126Z,13.31
2018-09-25T09:47:13.110Z,13.37
2018-09-25T09:48:13.086Z,13.37
2018-09-25T09:49:13.066Z,13.42
2018-09-25T09:50:13.066Z,13.40
2018-09-25T09:51:13.035Z,13.36
2018-09-25T09:52:13.001Z,13.45
2018-09-25T09:53:12.982Z,13.40
2018-09-25T09:54:12.965Z,13.46
2018-09-25T09:55:12.938Z,13.54
2018-09-25T09:56:12.930Z,13.55
2018-09-25T09:57:12.896Z,13.58
2018-09-25T09:58:12.878Z,13.60
2018-09-25T09:59:12.856Z,13.60
2018-09-25T10:00:12.835Z,13.65
2018-09-25T10:01:12.815Z,13.60
2018-09-25T10:02:12.792Z,13.54
2018-09-25T10:03:12.793Z,13.62
2018-09-25T10:04:12.753Z,13.61
2018-09-25T10:05:12.731Z,13.60
2018-09-25T10:06:12.719Z,13.61
2018-09-25T10:07:12.800Z,13.62
2018-09-25T10:08:12.686Z,13.67
2018-09-25T10:09:12.648Z,13.65
2018-09-25T10:10:12.626Z,13.64
2018-09-25T10:11:12.607Z,13.78
2018-09-25T10:12:12.586Z,13.76
2018-09-25T10:13:12.564Z,13.68
2018-09-25T10:14:12.544Z,13.71
2018-09-25T10:15:12.523Z,13.80
2018-09-25T10:16:12.503Z,13.76
2018-09-25T10:17:12.484Z,13.82
2018-09-25T10:18:12.475Z,13.86
2018-09-25T10:19:12.445Z,13.83
2018-09-25T10:20:12.421Z,13.85
2018-09-25T10:21:12.400Z,13.93
2018-09-25T10:22:12.379Z,13.95
2018-09-25T10:23:12.357Z,13.98
2018-09-25T10:24:12.338Z,14.01
2018-09-25T10:25:12.318Z,14.11
2018-09-25T10:26:12.296Z,14.11
2018-09-25T10:27:12.304Z,14.12
2018-09-25T10:28:12.260Z,14.11
2018-09-25T10:29:12.236Z,14.19
2018-09-25T10:30:12.219Z,14.26
2018-09-25T10:31:12.198Z,14.25
2018-09-25T10:32:12.175Z,14.28
2018-09-25T10:33:12.154Z,14.31
2018-09-25T10:34:12.196Z,14.26
2018-09-25T10:35:12.112Z,14.37
2018-09-25T10:36:12.094Z,14.37
2018-09-25T10:37:12.073Z,14.36
2018-09-25T10:38:12.053Z,14.37
2018-09-25T10:39:12.033Z,14.44
2018-09-25T10:40:12.017Z,14.45
2018-09-25T10:41:11.991Z,14.41
2018-09-25T10:42:11.983Z,14.48
2018-09-25T10:43:11.956Z,14.43
2018-09-25T10:44:11.935Z,14.48
2018-09-25T10:45:11.919Z,14.40
2018-09-25T10:46:11.890Z,14.41
2018-09-25T10:47:11.870Z,14.44
2018-09-25T10:48:11.848Z,14.38
2018-09-25T10:49:11.834Z,14.41
2018-09-25T10:50:11.815Z,14.44
2018-09-25T10:51:11.788Z,14.45
2018-09-25T10:52:11.770Z,14.45
2018-09-25T10:53:11.748Z,14.41
2018-09-25T10:54:11.728Z,14.34
2018-09-25T10:55:11.709Z,14.45
2018-09-25T10:56:11.775Z,14.40
2018-09-25T10:57:11.679Z,14.44
2018-09-25T10:58:11.649Z,14.44
2018-09-25T10:59:11.634Z,14.41
2018-09-25T11:00:11.610Z,14.40
2018-09-25T11:01:11.588Z,14.38
2018-09-25T11:02:11.566Z,14.38
2018-09-25T11:03:11.676Z,14.30
2018-09-25T11:04:11.529Z,14.34
2018-09-25T11:05:11.509Z,14.38
2018-09-25T11:06:11.488Z,14.43
2018-09-25T11:07:11.471Z,14.41
2018-09-25T11:08:11.454Z,14.37
2018-09-25T11:09:11.426Z,14.38
2018-09-25T11:10:11.475Z,14.44
2018-09-25T11:11:11.389Z,14.37
2018-09-25T11:12:11.452Z,14.43
2018-09-25T11:13:11.351Z,14.49
2018-09-25T11:14:11.329Z,14.40
2018-09-25T11:15:11.310Z,14.41
2018-09-25T11:16:11.287Z,14.38
2018-09-25T11:17:11.266Z,14.41
2018-09-25T11:18:11.250Z,14.53
2018-09-25T11:19:11.234Z,14.48
2018-09-25T11:20:11.208Z,14.45
2018-09-25T11:21:11.189Z,14.43
2018-09-25T11:22:11.170Z,14.45
2018-09-25T11:23:11.145Z,14.49
2018-09-25T11:24:11.127Z,14.48
2018-09-25T11:25:11.137Z,14.43
2018-09-25T11:26:11.089Z,14.41
2018-09-25T11:27:11.073Z,14.51
2018-09-25T11:28:11.047Z,14.52
2018-09-25T11:29:11.029Z,14.53
2018-09-25T11:30:11.029Z,14.56
2018-09-25T11:31:11.001Z,14.52
2018-09-25T11:32:10.984Z,14.52
2018-09-25T11:33:10.954Z,14.51
2018-09-25T11:34:10.927Z,14.51
2018-09-25T11:35:10.951Z,14.51
2018-09-25T11:36:10.892Z,14.51
2018-09-25T11:37:10.875Z,14.52
2018-09-25T11:38:10.851Z,14.56
2018-09-25T11:39:10.826Z,14.51
2018-09-25T11:40:10.809Z,14.52
2018-09-25T11:41:10.832Z,14.51
2018-09-25T11:42:10.771Z,14.51
2018-09-25T11:43:10.750Z,14.45
2018-09-25T11:44:10.736Z,14.52
2018-09-25T11:45:10.710Z,14.43
2018-09-25T11:46:10.690Z,14.45
2018-09-25T11:47:10.695Z,14.51
2018-09-25T11:48:10.649Z,14.49
2018-09-25T11:49:10.629Z,14.48
2018-09-25T11:50:10.613Z,14.58
2018-09-25T11:51:10.597Z,14.59
2018-09-25T11:52:10.573Z,14.55
2018-09-25T11:53:10.551Z,14.59
2018-09-25T11:54:10.530Z,14.66
2018-09-25T11:55:10.511Z,14.71
2018-09-25T11:56:10.526Z,14.67
2018-09-25T11:57:10.472Z,14.66
2018-09-25T11:58:10.452Z,14.81
2018-09-25T11:59:10.433Z,14.67
2018-09-25T12:00:10.413Z,14.73
2018-09-25T12:01:10.395Z,14.74
2018-09-25T12:02:10.426Z,14.73
2018-09-25T12:03:10.353Z,14.92
2018-09-25T12:04:10.335Z,14.96
2018-09-25T12:05:10.313Z,14.99
2018-09-25T12:06:10.294Z,14.97
2018-09-25T12:07:10.275Z,14.93
2018-09-25T12:08:10.258Z,14.97
2018-09-25T12:09:10.236Z,15.07
2018-09-25T12:10:10.216Z,15.04
2018-09-25T12:11:10.198Z,15.08
2018-09-25T12:12:10.176Z,15.10
2018-09-25T12:13:10.156Z,15.11
2018-09-25T12:14:10.140Z,15.08
2018-09-25T12:15:10.116Z,15.19
2018-09-25T12:16:10.097Z,15.17
2018-09-25T12:17:10.082Z,15.11
2018-09-25T12:18:10.057Z,15.15
2018-09-25T12:19:10.058Z,15.15
2018-09-25T12:20:10.019Z,15.22
2018-09-25T12:21:09.999Z,15.25
2018-09-25T12:22:09.979Z,15.32
2018-09-25T12:23:09.966Z,15.29
2018-09-25T12:24:09.944Z,15.33
2018-09-25T12:25:09.919Z,15.32
2018-09-25T12:26:09.900Z,15.33
2018-09-25T12:27:09.884Z,15.41
2018-09-25T12:28:09.868Z,15.45
2018-09-25T12:29:09.844Z,15.43
2018-09-25T12:30:09.822Z,15.45
2018-09-25T12:31:09.803Z,15.44
2018-09-25T12:32:09.791Z,15.47
2018-09-25T12:33:09.766Z,15.45
2018-09-25T12:34:09.750Z,15.48
2018-09-25T12:35:09.727Z,15.52
2018-09-25T12:36:09.712Z,15.47
2018-09-25T12:37:09.688Z,15.52
2018-09-25T12:38:09.672Z,15.57
2018-09-25T12:39:09.680Z,15.65
2018-09-25T12:40:09.633Z,15.66
2018-09-25T12:41:09.607Z,15.63
2018-09-25T12:42:09.599Z,15.62
2018-09-25T12:43:09.569Z,15.62
2018-09-25T12:44:09.554Z,15.70
2018-09-25T12:45:09.533Z,15.65
2018-09-25T12:46:09.511Z,15.69
2018-09-25T12:47:09.493Z,15.70
2018-09-25T12:48:09.474Z,15.69
2018-09-25T12:49:09.456Z,15.72
2018-09-25T12:50:09.433Z,15.65
2018-09-25T12:51:09.415Z,15.69
2018-09-25T12:52:09.401Z,15.72
2018-09-25T12:53:09.377Z,15.65
2018-09-25T12:54:09.358Z,15.63
2018-09-25T12:55:09.338Z,15.63
2018-09-25T12:56:09.327Z,15.62
2018-09-25T12:57:09.297Z,15.52
2018-09-25T12:58:09.278Z,15.54
2018-09-25T12:59:09.259Z,15.50
2018-09-25T13:00:09.241Z,15.45
2018-09-25T13:01:09.221Z,15.55
2018-09-25T13:02:09.204Z,15.54